Time;durP1;ratioP1;P1;durP2;ratioP2;P2;SDS_P1;SDS_P2;PMS_P1;PMS_P2;Temp;Humidity;BMP_temperature;BMP_pressure;BME280_temperature;BME280_humidity;BME280_pressure;Samples;Min_cycle;Max_cycle;Signal;HPM_P1;HPM_P2
2022/07/07 14:23:58;;;;;;;4.30;2.25;;;26.80;32.80;;;23.57;41.62;96180.53;5087368;27;20180;-46
2022/07/07 14:26:34;;;;;;;3.50;2.10;;;26.30;34.70;;;23.57;41.98;96188.69;5068003;28;20036;-47
2022/07/07 14:29:34;;;;;;;4.07;1.80;;;26.70;34.80;;;23.55;42.03;96180.06;5067522;28;20020;-48
2022/07/07 14:32:08;;;;;;;3.08;1.80;;;27.10;34.40;;;23.58;41.82;96182.13;5026033;28;20032;-47
2022/07/07 14:34:39;;;;;;;5.78;2.35;;;27.50;34.00;;;23.72;41.93;96184.56;5054262;28;20426;-51
2022/07/07 14:37:17;;;;;;;5.40;2.40;;;27.80;33.80;;;23.71;41.70;96188.44;5062885;28;20024;-46
2022/07/07 14:40:01;;;;;;;3.00;1.85;;;28.10;33.50;;;23.83;42.12;96179.53;5056745;28;20517;-46
2022/07/07 14:42:27;;;;;;;3.47;2.33;;;28.30;33.30;;;23.82;42.16;96178.75;5067115;28;20408;-48
2022/07/07 14:44:56;;;;;;;8.55;2.03;;;28.70;33.10;;;23.90;41.91;96182.50;5081087;28;20096;-51
2022/07/07 14:47:23;;;;;;;3.40;2.55;;;29.00;32.80;;;24.19;42.12;96193.25;5066097;28;20632;-47
2022/07/07 14:49:49;;;;;;;2.55;2.20;;;29.50;32.70;;;24.46;41.10;96178.19;5065735;28;20522;-46
2022/07/07 14:52:26;;;;;;;4.65;2.30;;;30.10;32.10;;;24.90;40.32;96183.06;5066363;28;20103;-48
2022/07/07 14:54:52;;;;;;;3.70;2.08;;;31.00;31.50;;;24.91;39.78;96180.03;5082496;28;20081;-46
2022/07/07 14:57:25;;;;;;;2.42;2.22;;;31.40;30.70;;;24.93;39.33;96183.19;5050657;28;20040;-51
2022/07/07 14:59:57;;;;;;;4.80;2.10;;;31.60;30.20;;;25.03;39.70;96184.63;5065552;28;20069;-48
2022/07/07 15:02:26;;;;;;;3.75;2.13;;;31.70;30.00;;;25.34;39.50;96178.59;5052024;28;20433;-46
2022/07/07 15:04:59;;;;;;;4.20;1.98;;;31.70;30.00;;;25.43;38.42;96192.09;5052980;28;20063;-50
2022/07/07 15:07:43;;;;;;;4.20;2.13;;;31.70;29.90;;;25.28;38.56;96179.97;5066790;28;20043;-49
2022/07/07 15:10:10;;;;;;;3.42;2.10;;;31.80;29.80;;;24.99;38.92;96191.13;5051771;28;20077;-47
2022/07/07 15:12:49;;;;;;;3.53;2.03;;;31.70;29.50;;;24.79;39.05;96190.09;5060056;28;20479;-47
2022/07/07 15:15:20;;;;;;;2.90;2.20;;;31.60;29.50;;;24.64;39.50;96192.41;5066351;28;20417;-51
2022/07/07 15:18:01;;;;;;;4.20;2.55;;;31.60;29.40;;;24.97;39.35;96183.28;5036134;28;20040;-53
2022/07/07 15:20:54;;;;;;;3.97;2.20;;;31.70;29.40;;;25.04;39.24;96190.88;5065179;28;20386;-48
2022/07/07 15:23:30;;;;;;;2.30;2.10;;;32.60;28.90;;;25.11;39.29;96200.09;5065068;28;20091;-47
2022/07/07 15:25:59;;;;;;;3.10;2.30;;;32.60;28.80;;;25.02;39.33;96193.97;5065456;28;20024;-51
2022/07/07 15:28:28;;;;;;;2.95;2.03;;;32.50;28.70;;;25.18;38.72;96191.34;5066066;28;20108;-46
2022/07/07 15:31:00;;;;;;;2.42;2.22;;;32.60;28.60;;;25.32;37.77;96199.16;5066477;28;20078;-47
2022/07/07 15:33:29;;;;;;;5.57;3.00;;;32.70;28.40;;;25.60;37.31;96194.53;5030288;28;20078;-47
2022/07/07 15:35:58;;;;;;;4.57;2.45;;;34.60;27.50;;;26.04;36.98;96204.69;5048541;28;20037;-47
2022/07/07 15:38:24;;;;;;;2.47;2.08;;;35.20;26.70;;;25.92;35.76;96207.53;5053906;22;20052;-49
2022/07/07 15:40:53;;;;;;;2.60;2.10;;;35.30;26.30;;;26.00;35.39;96203.81;5022851;28;20044;-48
2022/07/07 15:43:25;;;;;;;2.50;2.30;;;35.00;26.10;;;25.92;35.77;96202.84;5049463;28;20028;-47
2022/07/07 15:46:00;;;;;;;4.22;2.58;;;35.20;25.90;;;26.12;36.08;96209.22;5031574;28;20028;-48
2022/07/07 15:48:26;;;;;;;3.95;2.60;;;34.70;26.00;;;26.07;36.02;96204.00;5048268;28;20467;-46
2022/07/07 15:50:55;;;;;;;3.58;2.35;;;34.20;26.30;;;25.99;36.15;96203.03;5051244;28;20059;-53
2022/07/07 15:53:21;;;;;;;4.57;2.40;;;34.20;26.40;;;25.93;36.50;96204.44;5052409;28;20547;-48
2022/07/07 15:55:47;;;;;;;4.13;2.15;;;34.30;26.20;;;25.80;37.05;96209.13;5050689;28;20100;-49
2022/07/07 15:58:13;;;;;;;2.58;2.15;;;34.00;26.50;;;25.64;37.12;96208.28;5051841;28;20027;-50
2022/07/07 16:00:39;;;;;;;2.47;1.90;;;33.60;26.80;;;25.54;37.73;96206.03;5039645;28;20020;-52
2022/07/07 16:03:08;;;;;;;2.17;2.03;;;33.20;27.10;;;25.38;38.29;96205.94;5028958;28;20037;-50
2022/07/07 16:05:37;;;;;;;5.05;2.58;;;32.80;27.50;;;25.15;39.03;96211.13;5055849;28;20471;-51
2022/07/07 16:08:05;;;;;;;3.17;2.10;;;32.40;27.80;;;24.89;38.25;96208.75;5045660;28;20098;-50
2022/07/07 16:10:31;;;;;;;5.15;2.15;;;32.00;28.50;;;24.76;39.76;96205.22;5035998;28;20028;-52
2022/07/07 16:12:57;;;;;;;3.83;2.30;;;31.60;28.30;;;24.70;39.38;96206.59;5049595;28;20047;-49
2022/07/07 16:15:26;;;;;;;3.60;1.98;;;31.20;28.60;;;24.57;39.72;96215.88;5049677;28;20024;-51
2022/07/07 16:17:52;;;;;;;2.28;2.00;;;31.00;28.90;;;24.35;40.57;96212.44;5049283;28;20020;-50
2022/07/07 16:20:21;;;;;;;4.43;2.00;;;30.70;29.20;;;23.95;40.65;96207.56;5049348;28;20537;-50
2022/07/07 16:22:50;;;;;;;4.13;2.17;;;30.30;29.50;;;23.96;40.37;96209.16;5050396;28;20028;-46
2022/07/07 16:25:17;;;;;;;4.45;1.70;;;30.00;29.80;;;23.69;41.14;96207.81;5049657;28;20073;-53
2022/07/07 16:27:46;;;;;;;4.10;1.88;;;29.70;30.00;;;23.54;41.36;96211.91;5049641;28;20024;-47
2022/07/07 16:30:18;;;;;;;1.75;1.40;;;29.40;30.20;;;23.36;42.02;96213.16;5050481;28;20020;-48
2022/07/07 16:32:45;;;;;;;4.20;2.00;;;29.10;30.60;;;23.25;42.60;96212.78;5044996;28;20024;-50
2022/07/07 16:35:12;;;;;;;1.52;1.40;;;28.80;30.90;;;23.20;42.28;96204.03;5030876;28;20028;-51
2022/07/07 16:37:38;;;;;;;5.53;1.80;;;28.70;31.40;;;23.16;42.89;96208.50;5030907;28;20028;-52
2022/07/07 16:40:05;;;;;;;5.45;2.47;;;28.50;31.70;;;23.13;42.84;96201.84;5038597;28;20040;-47
2022/07/07 16:42:31;;;;;;;4.45;2.40;;;28.30;32.00;;;23.02;43.48;96197.91;5033009;28;20028;-51
2022/07/07 16:44:57;;;;;;;3.50;2.33;;;28.20;32.30;;;22.89;43.51;96196.19;5025476;28;20020;-49
2022/07/07 16:47:23;;;;;;;2.45;1.88;;;28.10;32.60;;;22.85;43.91;96205.00;5030969;28;20114;-53
2022/07/07 16:49:50;;;;;;;1.90;1.63;;;27.90;32.80;;;22.91;44.04;96202.91;5028757;28;20031;-50
2022/07/07 16:52:20;;;;;;;3.13;1.77;;;27.80;33.20;;;22.85;44.26;96207.72;5029176;28;20031;-51
2022/07/07 16:54:49;;;;;;;3.80;1.60;;;27.70;33.50;;;22.91;44.70;96208.34;5030535;28;20037;-49
2022/07/07 16:57:18;;;;;;;2.72;1.95;;;27.70;33.80;;;22.77;44.85;96210.47;5030413;28;20390;-49
2022/07/07 16:59:44;;;;;;;3.80;1.50;;;27.60;34.00;;;22.77;45.39;96215.91;5028501;28;20028;-48
2022/07/07 17:02:10;;;;;;;2.28;1.83;;;27.60;34.10;;;22.56;45.37;96207.69;5028904;28;20418;-50
2022/07/07 17:04:44;;;;;;;5.63;1.85;;;27.50;34.20;;;22.60;45.68;96204.00;5041958;28;20027;-53
2022/07/07 17:07:19;;;;;;;3.58;1.65;;;27.50;34.40;;;22.66;45.57;96210.06;5005431;28;20379;-51
2022/07/07 17:09:46;;;;;;;6.57;4.13;;;27.50;34.50;;;22.60;45.35;96211.38;5047099;28;20120;-48
2022/07/07 17:12:21;;;;;;;6.28;2.58;;;27.50;34.60;;;22.49;45.50;96204.69;5029159;28;20033;-48
2022/07/07 17:14:47;;;;;;;5.97;3.22;;;27.50;34.60;;;22.46;45.79;96210.78;5042192;28;20020;-48
2022/07/07 17:17:13;;;;;;;5.35;2.80;;;27.60;34.60;;;22.54;46.08;96201.81;5030016;28;20124;-47
2022/07/07 17:19:39;;;;;;;4.45;2.58;;;27.60;34.70;;;22.64;46.07;96204.16;5029394;28;20533;-50
2022/07/07 17:22:05;;;;;;;3.22;1.73;;;27.70;34.80;;;22.72;45.64;96207.94;5037925;28;20028;-50
2022/07/07 17:24:32;;;;;;;6.07;2.50;;;27.80;34.90;;;22.78;45.95;96210.16;5047983;28;20375;-48
2022/07/07 17:26:58;;;;;;;6.07;2.25;;;27.80;34.90;;;22.79;45.57;96211.75;5048546;28;20479;-49
2022/07/07 17:29:24;;;;;;;3.80;2.33;;;27.90;34.90;;;22.75;45.74;96204.56;5048000;28;20537;-51
2022/07/07 17:31:51;;;;;;;5.28;1.70;;;27.90;34.80;;;22.75;45.79;96210.00;5049276;28;20032;-51
2022/07/07 17:34:17;;;;;;;4.15;2.20;;;27.90;34.80;;;22.82;46.01;96211.09;5047623;28;20107;-52
2022/07/07 17:36:43;;;;;;;3.95;2.72;;;27.90;34.90;;;22.87;46.12;96215.53;5048295;28;20107;-52
2022/07/07 17:39:12;;;;;;;4.20;2.28;;;27.90;35.10;;;22.75;45.94;96218.97;5046597;28;20045;-52
2022/07/07 17:41:48;;;;;;;5.47;2.38;;;27.80;35.20;;;22.61;46.28;96221.88;5049086;28;20115;-50
2022/07/07 17:44:14;;;;;;;3.63;1.95;;;27.80;35.30;;;22.51;45.89;96216.03;4919951;28;29627;-49
2022/07/07 17:46:40;;;;;;;4.80;1.88;;;27.70;35.20;;;22.53;46.42;96221.91;5022049;28;20021;-46
2022/07/07 17:49:05;;;;;;;2.03;1.88;;;27.60;35.30;;;22.35;46.42;96213.84;5015377;28;20036;-49
2022/07/07 17:51:32;;;;;;;2.42;1.70;;;27.50;35.50;;;22.34;46.35;96217.69;5029093;28;20048;-49
2022/07/07 17:53:57;;;;;;;2.58;2.00;;;27.40;35.50;;;22.23;46.48;96215.66;4998748;28;20063;-48
2022/07/07 17:56:23;;;;;;;6.10;1.92;;;27.30;35.70;;;22.06;46.50;96221.88;5028686;28;20108;-47
2022/07/07 17:58:49;;;;;;;1.70;1.60;;;27.10;35.80;;;22.02;46.94;96223.63;5028011;28;20020;-49
2022/07/07 18:01:15;;;;;;;5.05;2.00;;;26.90;35.90;;;21.85;47.30;96227.97;5043799;28;20025;-50
2022/07/07 18:03:44;;;;;;;2.00;1.58;;;26.80;36.20;;;21.66;46.89;96230.22;5028829;28;20395;-52
2022/07/07 18:06:10;;;;;;;9.30;2.00;;;26.60;36.20;;;21.54;46.89;96239.00;5028984;28;20031;-51
2022/07/07 18:08:44;;;;;;;3.80;1.80;;;26.50;36.20;;;21.52;46.77;96238.50;5029333;28;20025;-47
2022/07/07 18:11:13;;;;;;;2.90;1.73;;;26.40;36.40;;;21.55;46.68;96240.59;5029243;28;20012;-49
2022/07/07 18:13:39;;;;;;;2.40;1.80;;;26.30;36.40;;;21.53;46.70;96245.53;5028539;28;20150;-50
2022/07/07 18:16:06;;;;;;;2.15;1.70;;;26.20;36.40;;;21.38;46.77;96241.38;5027505;28;20215;-47
2022/07/07 18:18:32;;;;;;;6.65;1.70;;;26.10;36.40;;;21.34;47.00;96245.81;4884512;28;24111;-48
2022/07/07 18:21:00;;;;;;;5.90;1.83;;;26.00;36.50;;;21.36;47.28;96246.31;5024277;28;20037;-47
2022/07/07 18:23:26;;;;;;;3.20;1.85;;;25.90;36.70;;;21.30;47.29;96244.06;5008809;28;20037;-51
2022/07/07 18:25:52;;;;;;;2.42;1.70;;;25.90;36.90;;;21.30;47.56;96244.84;5009219;28;20053;-48
2022/07/07 18:28:19;;;;;;;1.95;1.60;;;25.80;37.00;;;21.20;47.91;96250.56;5030912;28;20026;-50
2022/07/07 18:30:51;;;;;;;3.80;2.20;;;25.70;37.20;;;21.18;48.46;96253.59;5007805;28;20112;-46
2022/07/07 18:33:18;;;;;;;2.30;1.88;;;25.60;37.60;;;21.11;48.34;96257.88;5008659;28;20391;-51
2022/07/07 18:35:45;;;;;;;3.88;2.25;;;25.40;37.60;;;21.04;48.42;96263.75;4991917;28;20029;-45
2022/07/07 18:38:11;;;;;;;2.92;2.13;;;25.30;37.80;;;20.90;48.82;96266.59;5009172;28;20032;-49
2022/07/07 18:40:38;;;;;;;3.95;2.05;;;25.20;37.90;;;20.72;48.70;96265.75;5010172;28;20029;-46
2022/07/07 18:43:05;;;;;;;5.38;1.80;;;25.10;38.00;;;20.67;49.03;96273.19;5020515;28;20068;-46
2022/07/07 18:45:35;;;;;;;4.18;2.00;;;25.00;38.80;;;20.60;49.32;96272.84;5006519;28;20086;-45
2022/07/07 18:48:02;;;;;;;3.08;1.58;;;24.90;39.00;;;20.47;49.80;96274.53;5021951;28;20082;-45
2022/07/07 18:50:27;;;;;;;2.05;1.50;;;24.80;38.40;;;20.39;49.88;96281.47;5016417;28;20056;-47
2022/07/07 18:52:53;;;;;;;2.45;1.50;;;24.70;38.60;;;20.29;50.05;96287.94;5025235;28;20657;-45
2022/07/07 18:55:19;;;;;;;2.42;1.67;;;24.70;38.80;;;20.29;50.45;96293.34;5039602;28;20068;-50
2022/07/07 18:57:45;;;;;;;2.75;2.00;;;24.50;39.00;;;20.24;50.49;96293.47;5037083;28;20021;-47
2022/07/07 19:00:12;;;;;;;5.00;2.60;;;24.40;39.20;;;20.15;51.06;96302.63;5007145;28;20044;-50
2022/07/07 19:02:42;;;;;;;6.82;3.20;;;24.30;39.40;;;20.13;50.97;96304.88;5008673;28;20033;-50
2022/07/07 19:05:12;;;;;;;7.20;1.77;;;24.30;39.80;;;20.07;51.07;96304.97;5008563;28;20021;-48
2022/07/07 19:07:41;;;;;;;2.50;1.42;;;24.10;39.90;;;20.01;51.60;96316.22;5008919;28;20048;-45
2022/07/07 19:10:07;;;;;;;1.95;1.17;;;24.00;40.20;;;19.88;51.80;96323.28;5002146;28;20465;-45
2022/07/07 19:12:33;;;;;;;2.20;1.42;;;23.80;40.40;;;19.78;52.61;96320.84;5020717;28;20087;-47
2022/07/07 19:14:59;;;;;;;3.25;1.30;;;23.70;40.80;;;19.66;53.03;96329.47;5033385;28;20029;-47
2022/07/07 19:17:28;;;;;;;2.97;1.50;;;23.60;41.00;;;19.52;53.33;96334.06;5025245;28;20029;-51
2022/07/07 19:19:54;;;;;;;2.97;1.40;;;23.50;41.50;;;19.41;54.88;96338.91;5022445;28;20029;-49
2022/07/07 19:22:20;;;;;;;4.00;1.60;;;23.30;41.70;;;19.25;55.62;96334.91;5016961;28;20553;-45
2022/07/07 19:24:46;;;;;;;1.38;1.17;;;23.20;42.20;;;19.11;55.75;96343.00;5018861;28;20021;-47
2022/07/07 19:27:18;;;;;;;2.72;1.27;;;23.10;42.60;;;18.93;56.87;96344.72;5023605;28;20082;-47
2022/07/07 19:30:02;;;;;;;3.40;1.23;;;23.00;42.90;;;18.78;57.61;96339.59;5046768;28;20040;-44
2022/07/07 19:32:28;;;;;;;1.63;1.30;;;22.80;43.30;;;18.66;58.11;96343.56;5031723;28;20380;-46
2022/07/07 19:34:54;;;;;;;2.05;1.27;;;22.70;43.40;;;18.57;58.06;96347.22;5028130;28;20459;-47
2022/07/07 19:37:24;;;;;;;4.20;1.40;;;22.60;43.70;;;18.47;58.98;96351.72;5011706;28;20116;-45
2022/07/07 19:39:52;;;;;;;2.53;1.52;;;22.60;44.20;;;18.41;58.93;96352.88;5010140;28;20056;-46
2022/07/07 19:42:21;;;;;;;2.67;1.30;;;22.50;44.40;;;18.41;58.74;96360.97;5010936;28;20052;-46
2022/07/07 19:44:47;;;;;;;1.73;1.27;;;22.40;44.60;;;18.40;58.79;96359.38;5009288;28;20021;-49
2022/07/07 19:47:19;;;;;;;1.92;1.60;;;22.30;44.80;;;18.40;59.91;96363.97;4994644;28;20017;-46
2022/07/07 19:49:48;;;;;;;4.07;1.70;;;22.30;46.00;;;18.29;61.34;96365.22;5023856;28;20021;-47
2022/07/07 19:52:16;;;;;;;4.95;1.95;;;22.20;45.40;;;18.25;62.23;96379.31;5030203;28;20552;-47
2022/07/07 19:54:43;;;;;;;3.65;1.70;;;22.20;45.90;;;18.22;62.03;96381.78;5030020;28;20151;-47
2022/07/07 19:57:10;;;;;;;3.20;1.67;;;22.10;46.10;;;18.14;62.70;96383.25;5029282;28;20071;-48
2022/07/07 19:59:36;;;;;;;2.72;1.30;;;22.10;46.50;;;17.99;61.50;96383.50;5016914;28;20082;-47
2022/07/07 20:02:03;;;;;;;1.48;1.33;;;22.00;46.50;;;17.96;60.97;96395.66;5012105;28;20071;-46
2022/07/07 20:04:29;;;;;;;1.58;1.40;;;22.00;46.50;;;17.94;60.16;96389.75;5011176;28;20017;-45
2022/07/07 20:07:02;;;;;;;2.15;1.95;;;21.90;46.40;;;17.99;60.40;96400.47;4994626;28;20021;-46
2022/07/07 20:09:28;;;;;;;2.88;1.40;;;21.90;46.70;;;18.02;60.66;96407.19;4995014;28;20017;-45
2022/07/07 20:11:58;;;;;;;1.63;1.20;;;21.90;46.70;;;18.02;61.05;96409.88;5010578;28;20029;-46
2022/07/07 20:14:29;;;;;;;2.90;1.38;;;21.90;47.00;;;17.99;60.69;96402.38;5012219;28;20549;-47
2022/07/07 20:16:55;;;;;;;1.45;1.30;;;21.80;46.90;;;17.97;60.55;96407.25;5012338;28;20021;-45
2022/07/07 20:19:24;;;;;;;1.80;1.20;;;21.80;46.90;;;18.00;60.98;96412.03;5011235;28;20021;-51
2022/07/07 20:21:56;;;;;;;1.92;1.20;;;21.80;47.20;;;17.98;60.55;96419.63;5012289;28;20032;-48
2022/07/07 20:24:22;;;;;;;1.05;0.95;;;21.80;47.30;;;17.94;60.31;96413.22;5011426;28;20025;-49
2022/07/07 20:26:59;;;;;;;3.00;1.17;;;21.80;47.10;;;17.90;60.28;96409.50;5018514;28;20506;-47
2022/07/07 20:29:26;;;;;;;4.35;1.38;;;21.70;47.20;;;17.79;60.59;96414.22;5032233;28;20115;-45
2022/07/07 20:31:58;;;;;;;1.88;1.30;;;21.70;47.10;;;17.80;59.92;96413.16;5019446;28;20021;-49
2022/07/07 20:34:24;;;;;;;1.67;1.20;;;21.70;47.20;;;17.82;59.90;96410.16;5011970;28;20029;-48
2022/07/07 20:36:59;;;;;;;1.20;1.10;;;21.60;47.10;;;17.82;59.58;96424.41;5028158;28;20488;-47
2022/07/07 20:39:25;;;;;;;2.25;1.00;;;21.60;47.40;;;17.80;59.97;96415.84;5012941;28;20468;-47
2022/07/07 20:41:51;;;;;;;1.40;1.10;;;21.60;47.20;;;17.73;59.65;96418.03;5012702;28;20116;-48
2022/07/07 20:44:20;;;;;;;1.10;1.00;;;21.50;47.20;;;17.69;59.86;96428.59;5028206;28;20105;-51
2022/07/07 20:46:49;;;;;;;3.35;1.30;;;21.50;47.40;;;17.63;59.88;96423.56;5012699;28;20115;-50
2022/07/07 20:49:15;;;;;;;1.13;1.02;;;21.50;47.30;;;17.64;59.93;96425.97;5027872;28;20127;-46
2022/07/07 20:51:42;;;;;;;1.08;1.05;;;21.40;47.30;;;17.58;60.00;96427.94;5011519;28;20380;-47
2022/07/07 20:54:08;;;;;;;1.42;0.93;;;21.40;47.30;;;17.47;60.51;96418.38;5011691;28;20017;-47
2022/07/07 20:56:34;;;;;;;2.33;1.20;;;21.40;47.40;;;17.47;60.67;96429.13;5011351;28;20487;-46
2022/07/07 20:59:03;;;;;;;2.35;1.10;;;21.30;47.50;;;17.41;60.71;96426.78;5011391;28;20021;-50
2022/07/07 21:01:35;;;;;;;1.10;1.00;;;21.30;47.70;;;17.31;60.77;96428.50;5011279;28;20057;-49
2022/07/07 21:04:01;;;;;;;1.90;1.15;;;21.20;47.70;;;17.32;61.11;96432.81;5026036;28;20036;-47
2022/07/07 21:06:27;;;;;;;3.08;1.27;;;21.10;47.80;;;17.31;60.96;96433.09;5009553;28;21262;-45
2022/07/07 21:08:56;;;;;;;1.20;1.10;;;21.10;47.90;;;17.26;61.65;96433.94;5044002;28;20471;-46
2022/07/07 21:11:25;;;;;;;1.23;1.10;;;21.10;48.10;;;17.24;61.63;96429.97;5029812;28;20027;-45
2022/07/07 21:13:52;;;;;;;2.42;1.50;;;21.00;48.20;;;17.24;61.51;96438.84;5018755;28;20497;-45
2022/07/07 21:16:26;;;;;;;2.80;1.10;;;21.00;48.30;;;17.25;61.67;96447.72;5010898;28;20028;-46
2022/07/07 21:18:52;;;;;;;1.10;1.00;;;20.90;48.40;;;17.22;61.60;96442.91;5011463;28;20422;-49
2022/07/07 21:21:18;;;;;;;1.13;0.90;;;21.00;48.40;;;17.21;61.57;96457.44;5036148;28;20370;-50
2022/07/07 21:23:47;;;;;;;1.13;1.02;;;21.00;48.50;;;17.23;61.58;96455.25;5010481;28;20171;-47
2022/07/07 21:26:17;;;;;;;3.38;1.40;;;21.00;48.60;;;17.18;61.84;96450.75;5035925;28;20119;-49
2022/07/07 21:28:46;;;;;;;2.42;1.25;;;20.90;48.60;;;17.18;61.15;96450.75;5011037;28;20025;-46
2022/07/07 21:31:15;;;;;;;3.50;1.17;;;21.00;48.60;;;17.19;61.10;96455.03;5010487;28;20103;-47
2022/07/07 21:33:44;;;;;;;1.13;1.00;;;20.90;48.50;;;17.25;61.24;96455.78;5010866;28;20029;-48
2022/07/07 21:36:13;;;;;;;3.83;1.50;;;21.00;49.30;;;17.22;60.66;96459.06;5029270;28;20020;-48
2022/07/07 21:38:39;;;;;;;2.90;1.30;;;21.00;48.50;;;17.21;60.23;96450.19;5044696;22;21617;-49
2022/07/07 21:41:06;;;;;;;2.50;1.30;;;21.00;48.50;;;17.25;60.44;96451.19;5028670;28;20024;-46
2022/07/07 21:43:32;;;;;;;3.63;1.25;;;21.00;48.40;;;17.22;60.12;96451.78;5042432;28;20144;-46
2022/07/07 21:45:57;;;;;;;2.83;1.20;;;21.00;48.40;;;17.22;60.13;96453.66;5042496;28;20104;-47
2022/07/07 21:48:25;;;;;;;1.27;1.08;;;21.00;48.30;;;17.19;60.27;96460.41;5030690;28;20020;-46
2022/07/07 21:50:52;;;;;;;2.63;1.17;;;21.00;48.30;;;17.23;60.01;96461.44;5029041;28;20028;-47
2022/07/07 21:53:27;;;;;;;1.30;1.00;;;21.00;48.30;;;17.23;60.27;96457.94;5029101;28;20036;-46
2022/07/07 21:55:54;;;;;;;1.50;1.40;;;21.00;48.40;;;17.23;60.03;96466.81;5030460;28;20032;-46
2022/07/07 21:58:24;;;;;;;1.30;1.20;;;21.00;48.30;;;17.27;60.03;96475.16;5029138;28;20086;-46
2022/07/07 22:00:50;;;;;;;3.22;1.20;;;21.00;48.40;;;17.25;60.07;96474.63;5028846;28;20383;-46
2022/07/07 22:07:01;;;;;;;1.88;1.20;;;21.00;48.30;;;17.24;60.88;96476.53;5029405;28;20028;-46
2022/07/07 22:08:50;;;;;;;1.65;1.00;;;21.00;48.30;;;17.24;60.50;96473.84;5029738;28;20051;-45
2022/07/07 22:11:19;;;;;;;1.90;0.90;;;21.00;48.30;;;17.19;60.07;96479.25;5030669;28;20021;-46
2022/07/07 22:13:50;;;;;;;1.90;1.30;;;21.00;48.40;;;17.16;60.72;96489.78;5030022;28;20380;-46
2022/07/07 22:16:24;;;;;;;1.67;1.20;;;21.00;48.50;;;17.16;60.32;96490.59;5045511;28;20107;-47
2022/07/07 22:18:58;;;;;;;2.05;1.27;;;20.90;48.40;;;17.17;60.18;96492.19;5044998;28;20138;-46
2022/07/07 22:21:27;;;;;;;3.17;1.20;;;20.90;48.40;;;17.17;60.85;96496.78;5029051;28;20024;-45
